METAR Data

Data at: 2331 UTC 26 Feb 2020

METAR for:CYSJ (Saint John Arpt, NB, CN)
Text:CYSJ 262300Z 06006KT 15SM OVC071 05/M03 A3007 RMK AC8 SLP189
Temperature: 5.0°C ( 41°F)
Dewpoint: -3.0°C ( 27°F) [RH = 56%]
Pressure (altimeter):30.07 inches Hg (1018.4 mb) [Sea level pressure: 1018.9 mb]
Winds:from the ENE (60 degrees) at 7 MPH (6 knots; 3.1 m/s)
Visibility: 15 sm ( 24 km)
Ceiling:7100 feet AGL
Clouds: overcast cloud deck at 7100 feet AGL